Pecs/Pogany, Hungary
Current Conditions -  °F | °C
As of 9:15 AM on Wednesday 26 Nov 2014 (Local Time) from LHPP Reporting Station
Haze Haze  
Wind Chill: 26°   Ceiling: Unl
Heat Index: 32°   Visibility: 1.2mi
Dew Point: 32°   Wind: 6mph
Humidity: 100%   Direction: 90°E
Pressure: 30.27"   Gusts: NA
Location:  46.1°N, 18.23°E
Report Text: LHPP 260715Z 09005KT 2000 BR FEW083 00/M00 Q1025
Loading
Personal Weather Stations






























Interactive Weather Map New forecast layout! Learn more

10-Day Weather Forecast

Advertisements
Track Severe Weather on mobile